N620DF BGKK-BIRF

Flight info

Callsign N620DF
Flight time 2h 31m
Altitude 7000
Route NASOP UT592 NONRO
Aircraft PA24/L-SDGRY/S

Departure

Time 2026-05-07 23:57
Airport Kulusuk Airport (BGKK)

Arrival

Time 2026-05-08 02:28
Airport Rif Airport (BIRF)
Time Latitude Longitude Altitude Speed Heading
2026-05-07 23:46 65.57418 -37.13476 105 ft 0 kts 262°
2026-05-07 23:54 65.57410 -37.13523 108 ft 9 kts 200°
2026-05-07 23:54 65.57338 -37.13403 107 ft 14 kts 145°
2026-05-07 23:54 65.57318 -37.13157 107 ft 22 kts 82°
2026-05-07 23:54 65.57346 -37.12685 105 ft 33 kts 82°
2026-05-07 23:55 65.57360 -37.12258 104 ft 22 kts 84°
2026-05-07 23:55 65.57365 -37.11992 102 ft 11 kts 97°
2026-05-07 23:55 65.57366 -37.11725 101 ft 11 kts 100°
2026-05-07 23:55 65.57379 -37.11692 100 ft 0 kts 283°
2026-05-07 23:56 65.57360 -37.12113 103 ft 54 kts 254°
2026-05-07 23:56 65.57319 -37.13219 211 ft 73 kts 246°
2026-05-07 23:56 65.57306 -37.14454 483 ft 73 kts 290°
2026-05-07 23:56 65.57697 -37.15390 629 ft 91 kts 333°
2026-05-07 23:57 65.58320 -37.15334 869 ft 95 kts 24°
2026-05-07 23:57 65.58773 -37.14124 1100 ft 100 kts 58°
2026-05-07 23:57 65.58969 -37.12541 1380 ft 101 kts 85°
2026-05-07 23:57 65.59016 -37.10852 1658 ft 100 kts 87°
2026-05-07 23:58 65.59049 -37.09129 1858 ft 105 kts 89°
2026-05-07 23:58 65.58975 -37.07401 2126 ft 103 kts 104°
2026-05-07 23:58 65.58723 -37.05762 2346 ft 104 kts 120°
2026-05-07 23:58 65.58331 -37.04326 2613 ft 103 kts 131°
2026-05-07 23:59 65.57864 -37.03012 2841 ft 103 kts 136°
2026-05-07 23:59 65.57389 -37.01728 3043 ft 103 kts 134°
2026-05-07 23:59 65.56959 -37.00354 3263 ft 104 kts 126°
2026-05-07 23:59 65.56623 -36.98771 3442 ft 106 kts 113°
2026-05-08 00:00 65.56437 -36.97071 3639 ft 107 kts 99°
2026-05-08 00:00 65.56414 -36.95272 3833 ft 108 kts 85°
2026-05-08 00:00 65.56546 -36.93490 4034 ft 108 kts 73°
2026-05-08 00:00 65.56769 -36.91753 4236 ft 108 kts 67°
2026-05-08 00:01 65.57063 -36.90073 4419 ft 109 kts 63°
2026-05-08 00:01 65.57381 -36.88412 4603 ft 109 kts 63°
2026-05-08 00:01 65.57677 -36.86723 4785 ft 110 kts 67°
2026-05-08 00:01 65.57912 -36.84962 4980 ft 111 kts 73°
2026-05-08 00:02 65.58058 -36.83129 5163 ft 111 kts 82°
2026-05-08 00:02 65.58100 -36.81266 5343 ft 111 kts 90°
2026-05-08 00:02 65.58046 -36.79408 5518 ft 111 kts 97°
2026-05-08 00:02 65.57913 -36.77574 5696 ft 110 kts 102°
2026-05-08 00:03 65.57737 -36.75766 5869 ft 111 kts 105°
2026-05-08 00:03 65.57550 -36.73963 6033 ft 111 kts 104°
2026-05-08 00:03 65.57382 -36.72150 6214 ft 111 kts 102°
2026-05-08 00:03 65.57255 -36.70316 6379 ft 111 kts 97°
2026-05-08 00:04 65.57188 -36.68461 6547 ft 111 kts 92°
2026-05-08 00:04 65.57183 -36.66593 6705 ft 111 kts 88°
2026-05-08 00:04 65.57236 -36.64728 6856 ft 112 kts 83°
2026-05-08 00:04 65.57329 -36.62870 7005 ft 112 kts 81°
2026-05-08 00:05 65.57445 -36.61021 7147 ft 111 kts 79°
2026-05-08 00:05 65.57561 -36.59196 7291 ft 111 kts 80°
2026-05-08 00:05 65.57661 -36.57312 7428 ft 112 kts 82°
2026-05-08 00:05 65.57730 -36.55430 7570 ft 112 kts 84°
2026-05-08 00:06 65.57762 -36.53568 7703 ft 113 kts 87°
2026-05-08 00:06 65.57760 -36.51674 7842 ft 113 kts 89°
2026-05-08 00:06 65.57727 -36.49787 7977 ft 113 kts 91°
2026-05-08 00:06 65.57675 -36.47897 8112 ft 113 kts 92°
2026-05-08 00:07 65.57611 -36.46004 8244 ft 113 kts 92°
2026-05-08 00:07 65.57550 -36.44106 8380 ft 114 kts 92°
2026-05-08 00:07 65.57499 -36.42202 8513 ft 113 kts 90°
2026-05-08 00:07 65.57470 -36.40301 8644 ft 113 kts 88°
2026-05-08 00:08 65.57464 -36.38394 8769 ft 113 kts 87°
2026-05-08 00:08 65.57480 -36.36496 8894 ft 113 kts 85°
2026-05-08 00:08 65.57509 -36.34598 9019 ft 113 kts 84°
2026-05-08 00:08 65.57548 -36.32703 9137 ft 113 kts 84°
2026-05-08 00:09 65.57587 -36.30800 9228 ft 114 kts 84°
2026-05-08 00:09 65.57619 -36.28893 9332 ft 113 kts 85°
2026-05-08 00:09 65.57642 -36.26984 9427 ft 114 kts 85°
2026-05-08 00:09 65.57654 -36.25072 9524 ft 114 kts 86°
2026-05-08 00:10 65.57654 -36.23160 9612 ft 114 kts 87°
2026-05-08 00:10 65.57641 -36.21219 9632 ft 119 kts 88°
2026-05-08 00:10 65.57617 -36.19174 9573 ft 121 kts 89°
2026-05-08 00:10 65.57588 -36.17100 9449 ft 127 kts 89°
2026-05-08 00:11 65.57564 -36.14926 9273 ft 134 kts 88°
2026-05-08 00:11 65.57551 -36.12558 8997 ft 143 kts 88°
2026-05-08 00:11 65.57547 -36.10249 8947 ft 133 kts 87°
2026-05-08 00:11 65.57550 -36.07905 8573 ft 146 kts 86°
2026-05-08 00:12 65.57566 -36.05524 8452 ft 136 kts 86°
2026-05-08 00:12 65.57589 -36.03168 8152 ft 142 kts 86°
2026-05-08 00:12 65.57620 -36.00752 7796 ft 148 kts 87°
2026-05-08 00:12 65.57642 -35.98290 7624 ft 144 kts 88°
2026-05-08 00:13 65.57645 -35.97703 7571 ft 143 kts 88°
2026-05-08 00:13 65.57651 -35.96208 7375 ft 148 kts 89°
2026-05-08 00:13 65.57643 -35.93769 7254 ft 140 kts 90°
2026-05-08 00:13 65.57626 -35.91486 7238 ft 138 kts 90°
2026-05-08 00:14 65.57596 -35.89115 7292 ft 146 kts 92°
2026-05-08 00:14 65.57549 -35.86601 7249 ft 152 kts 92°
2026-05-08 00:14 65.57526 -35.84170 7242 ft 138 kts 90°
2026-05-08 00:14 65.57507 -35.81776 6811 ft 160 kts 90°
2026-05-08 00:15 65.57501 -35.79185 6830 ft 149 kts 91°
2026-05-08 00:15 65.57496 -35.76644 6759 ft 155 kts 90°
2026-05-08 00:15 65.57497 -35.74081 6840 ft 147 kts 90°
2026-05-08 00:15 65.57499 -35.71699 6985 ft 141 kts 90°
2026-05-08 00:16 65.57492 -35.69274 7003 ft 143 kts 90°
2026-05-08 00:16 65.57485 -35.66822 7003 ft 148 kts 90°
2026-05-08 00:16 65.57475 -35.64337 7019 ft 149 kts 90°
2026-05-08 00:16 65.57472 -35.61832 7028 ft 149 kts 90°
2026-05-08 00:17 65.57460 -35.59310 7024 ft 152 kts 90°
2026-05-08 00:17 65.57436 -35.56738 7021 ft 154 kts 92°
2026-05-08 00:17 65.57425 -35.54132 7018 ft 157 kts 90°
2026-05-08 00:17 65.57420 -35.51518 7020 ft 155 kts 90°
2026-05-08 00:18 65.57416 -35.48914 7019 ft 154 kts 90°
2026-05-08 00:18 65.57412 -35.46348 7019 ft 154 kts 90°
2026-05-08 00:18 65.57396 -35.43745 7018 ft 155 kts 91°
2026-05-08 00:18 65.57373 -35.41130 7018 ft 157 kts 91°
2026-05-08 00:19 65.57350 -35.38506 7018 ft 155 kts 91°
2026-05-08 00:19 65.57327 -35.35906 7018 ft 154 kts 91°
2026-05-08 00:19 65.57305 -35.33324 7021 ft 152 kts 91°
2026-05-08 00:19 65.57291 -35.30736 7023 ft 155 kts 90°
2026-05-08 00:20 65.57271 -35.28147 7026 ft 156 kts 91°
2026-05-08 00:20 65.57256 -35.25509 7026 ft 156 kts 91°
2026-05-08 00:20 65.57230 -35.22911 7027 ft 156 kts 92°
2026-05-08 00:20 65.57191 -35.20335 7029 ft 153 kts 91°
2026-05-08 00:21 65.57178 -35.17749 7029 ft 155 kts 90°
2026-05-08 00:21 65.57173 -35.15150 7029 ft 155 kts 90°
2026-05-08 00:21 65.57173 -35.12563 7031 ft 157 kts 90°
2026-05-08 00:21 65.57172 -35.09952 7030 ft 155 kts 91°
2026-05-08 00:22 65.57157 -35.07351 7029 ft 153 kts 91°
2026-05-08 00:22 65.57140 -35.04784 7029 ft 154 kts 91°
2026-05-08 00:22 65.57115 -35.02185 7032 ft 154 kts 92°
2026-05-08 00:22 65.57087 -34.99564 7032 ft 157 kts 91°
2026-05-08 00:23 65.57059 -34.96952 7032 ft 154 kts 91°
2026-05-08 00:23 65.57032 -34.94350 7032 ft 155 kts 91°
2026-05-08 00:23 65.56998 -34.91776 7032 ft 152 kts 92°
2026-05-08 00:23 65.56961 -34.89197 7036 ft 153 kts 91°
2026-05-08 00:24 65.56949 -34.86612 7035 ft 156 kts 90°
2026-05-08 00:24 65.56927 -34.83998 7035 ft 154 kts 91°
2026-05-08 00:24 65.56907 -34.81420 7035 ft 154 kts 89°
2026-05-08 00:24 65.56906 -34.78867 7037 ft 152 kts 90°
2026-05-08 00:25 65.56880 -34.76299 7037 ft 155 kts 91°
2026-05-08 00:25 65.56833 -34.73729 7037 ft 154 kts 92°
2026-05-08 00:25 65.56786 -34.71098 7046 ft 159 kts 91°
2026-05-08 00:25 65.56747 -34.68483 7045 ft 157 kts 92°
2026-05-08 00:26 65.56718 -34.65866 7045 ft 153 kts 91°
2026-05-08 00:26 65.56694 -34.63299 7045 ft 155 kts 91°
2026-05-08 00:26 65.56656 -34.60690 7045 ft 155 kts 91°
2026-05-08 00:26 65.56638 -34.58060 7047 ft 156 kts 90°
2026-05-08 00:27 65.56603 -34.55433 7048 ft 155 kts 92°
2026-05-08 00:27 65.56528 -34.52819 7049 ft 155 kts 95°
2026-05-08 00:27 65.56386 -34.50251 7049 ft 153 kts 99°
2026-05-08 00:27 65.56180 -34.47689 7050 ft 156 kts 102°
2026-05-08 00:28 65.55938 -34.45146 7051 ft 156 kts 103°
2026-05-08 00:28 65.55675 -34.42557 7050 ft 160 kts 105°
2026-05-08 00:28 65.55408 -34.40030 7054 ft 155 kts 104°
2026-05-08 00:28 65.55170 -34.37469 7053 ft 158 kts 102°
2026-05-08 00:29 65.54951 -34.34881 7053 ft 155 kts 102°
2026-05-08 00:29 65.54755 -34.32364 7053 ft 156 kts 100°
2026-05-08 00:29 65.54577 -34.29774 7057 ft 155 kts 98°
2026-05-08 00:29 65.54445 -34.27158 7057 ft 159 kts 97°
2026-05-08 00:30 65.54320 -34.24475 7053 ft 157 kts 96°
2026-05-08 00:30 65.54190 -34.21906 7062 ft 157 kts 97°
2026-05-08 00:30 65.54044 -34.19328 7061 ft 153 kts 98°
2026-05-08 00:30 65.53881 -34.16770 7062 ft 156 kts 99°
2026-05-08 00:31 65.53713 -34.14181 7061 ft 155 kts 100°
2026-05-08 00:31 65.53519 -34.11574 7062 ft 158 kts 101°
2026-05-08 00:31 65.53302 -34.08988 7064 ft 156 kts 102°
2026-05-08 00:31 65.53079 -34.06429 7066 ft 158 kts 102°
2026-05-08 00:32 65.52870 -34.03868 7066 ft 154 kts 101°
2026-05-08 00:32 65.52666 -34.01344 7067 ft 156 kts 101°
2026-05-08 00:32 65.52481 -33.98764 7068 ft 155 kts 98°
2026-05-08 00:32 65.52316 -33.96173 7067 ft 159 kts 100°
2026-05-08 00:33 65.52134 -33.93540 7067 ft 158 kts 99°
2026-05-08 00:33 65.51951 -33.90954 7067 ft 157 kts 100°
2026-05-08 00:33 65.51751 -33.88379 7067 ft 155 kts 100°
2026-05-08 00:33 65.51566 -33.85809 7069 ft 154 kts 99°
2026-05-08 00:34 65.51391 -33.83220 7070 ft 156 kts 99°
2026-05-08 00:34 65.51236 -33.80631 7070 ft 157 kts 98°
2026-05-08 00:34 65.51072 -33.78003 7072 ft 157 kts 99°
2026-05-08 00:34 65.50881 -33.75437 7078 ft 156 kts 100°
2026-05-08 00:35 65.50682 -33.72881 7078 ft 153 kts 101°
2026-05-08 00:35 65.50474 -33.70361 7077 ft 154 kts 101°
2026-05-08 00:35 65.50266 -33.67810 7076 ft 155 kts 101°
2026-05-08 00:35 65.50060 -33.65268 7077 ft 156 kts 100°
2026-05-08 00:36 65.49859 -33.62703 7078 ft 156 kts 100°
2026-05-08 00:36 65.49674 -33.60143 7078 ft 154 kts 99°
2026-05-08 00:36 65.49507 -33.57581 7081 ft 155 kts 98°
2026-05-08 00:36 65.49333 -33.55045 7080 ft 153 kts 99°
2026-05-08 00:37 65.49153 -33.52520 7078 ft 157 kts 98°
2026-05-08 00:37 65.48970 -33.49899 7080 ft 158 kts 97°
2026-05-08 00:37 65.48768 -33.47261 7083 ft 161 kts 99°
2026-05-08 00:38 65.48346 -33.42055 7083 ft 157 kts 99°
2026-05-08 00:38 65.48144 -33.39485 7083 ft 158 kts 99°
2026-05-08 00:38 65.47945 -33.36939 7084 ft 158 kts 99°
2026-05-08 00:38 65.47742 -33.34350 7086 ft 158 kts 99°
2026-05-08 00:39 65.47548 -33.31733 7083 ft 161 kts 99°
2026-05-08 00:39 65.47349 -33.29103 7086 ft 157 kts 98°
2026-05-08 00:39 65.47162 -33.26507 7092 ft 158 kts 98°
2026-05-08 00:39 65.46970 -33.23940 7091 ft 154 kts 99°
2026-05-08 00:40 65.46784 -33.21378 7091 ft 158 kts 98°
2026-05-08 00:40 65.46591 -33.18785 7091 ft 156 kts 99°
2026-05-08 00:40 65.46385 -33.16189 7089 ft 157 kts 99°
2026-05-08 00:40 65.46177 -33.13586 7091 ft 157 kts 99°
2026-05-08 00:41 65.45977 -33.10996 7091 ft 159 kts 99°
2026-05-08 00:41 65.45785 -33.08415 7092 ft 155 kts 98°
2026-05-08 00:41 65.45600 -33.05867 7094 ft 157 kts 99°
2026-05-08 00:41 65.45368 -33.03291 7094 ft 156 kts 102°
2026-05-08 00:42 65.45132 -33.00709 7094 ft 160 kts 100°
2026-05-08 00:42 65.44990 -32.98964 7094 ft 160 kts 99°
2026-05-08 00:42 65.44797 -32.96359 7094 ft 156 kts 98°
2026-05-08 00:42 65.44620 -32.93757 7096 ft 156 kts 98°
2026-05-08 00:43 65.44445 -32.91184 7096 ft 156 kts 98°
2026-05-08 00:43 65.44263 -32.88606 7097 ft 159 kts 99°
2026-05-08 00:43 65.44065 -32.86029 7099 ft 157 kts 99°
2026-05-08 00:43 65.43843 -32.83436 7102 ft 160 kts 100°
2026-05-08 00:44 65.43617 -32.80847 7102 ft 156 kts 101°
2026-05-08 00:44 65.43398 -32.78273 7102 ft 158 kts 100°
2026-05-08 00:44 65.43191 -32.75724 7102 ft 154 kts 100°
2026-05-08 00:44 65.42981 -32.73176 7108 ft 157 kts 99°
2026-05-08 00:45 65.42782 -32.70599 7108 ft 156 kts 99°
2026-05-08 00:45 65.42574 -32.68004 7108 ft 157 kts 100°
2026-05-08 00:45 65.42353 -32.65424 7107 ft 157 kts 100°
2026-05-08 00:45 65.42142 -32.62853 7113 ft 157 kts 100°
2026-05-08 00:46 65.41926 -32.60312 7108 ft 154 kts 100°
2026-05-08 00:46 65.41720 -32.57791 7108 ft 155 kts 100°
2026-05-08 00:46 65.41511 -32.55240 7107 ft 155 kts 100°
2026-05-08 00:46 65.41301 -32.52692 7111 ft 157 kts 100°
2026-05-08 00:47 65.41095 -32.50117 7112 ft 156 kts 99°
2026-05-08 00:47 65.40900 -32.47568 7113 ft 156 kts 99°
2026-05-08 00:47 65.40688 -32.45027 7113 ft 154 kts 100°
2026-05-08 00:47 65.40486 -32.42490 7111 ft 154 kts 99°
2026-05-08 00:48 65.40284 -32.39949 7111 ft 155 kts 100°
2026-05-08 00:48 65.40074 -32.37410 7110 ft 155 kts 99°
2026-05-08 00:48 65.39867 -32.34916 7110 ft 154 kts 99°
2026-05-08 00:48 65.39648 -32.32417 7110 ft 153 kts 99°
2026-05-08 00:49 65.39424 -32.29923 7110 ft 153 kts 99°
2026-05-08 00:49 65.39211 -32.27439 7110 ft 152 kts 99°
2026-05-08 00:49 65.39000 -32.24948 7110 ft 153 kts 99°
2026-05-08 00:49 65.38794 -32.22441 7110 ft 153 kts 98°
2026-05-08 00:50 65.38591 -32.19935 7111 ft 153 kts 98°
2026-05-08 00:50 65.38389 -32.17422 7110 ft 153 kts 98°
2026-05-08 00:50 65.38184 -32.14920 7110 ft 153 kts 98°
2026-05-08 00:50 65.37977 -32.12423 7110 ft 152 kts 99°
2026-05-08 00:51 65.37767 -32.09935 7110 ft 153 kts 99°
2026-05-08 00:51 65.37554 -32.07437 7110 ft 152 kts 99°
2026-05-08 00:51 65.37341 -32.04942 7110 ft 153 kts 99°
2026-05-08 00:51 65.37122 -32.02440 7107 ft 153 kts 99°
2026-05-08 00:52 65.36905 -31.99948 7107 ft 153 kts 99°
2026-05-08 00:52 65.36688 -31.97450 7108 ft 152 kts 99°
2026-05-08 00:52 65.36471 -31.94963 7110 ft 152 kts 99°
2026-05-08 00:52 65.36257 -31.92473 7108 ft 153 kts 99°
2026-05-08 00:53 65.36043 -31.89983 7108 ft 153 kts 99°
2026-05-08 00:53 65.35826 -31.87477 7107 ft 154 kts 99°
2026-05-08 00:53 65.35611 -31.84975 7111 ft 153 kts 99°
2026-05-08 00:53 65.35393 -31.82477 7109 ft 154 kts 100°
2026-05-08 00:54 65.35177 -31.80020 7108 ft 152 kts 99°
2026-05-08 00:54 65.34966 -31.77526 7108 ft 153 kts 99°
2026-05-08 00:54 65.34754 -31.75030 7108 ft 152 kts 99°
2026-05-08 00:54 65.34539 -31.72534 7105 ft 153 kts 99°
2026-05-08 00:55 65.34319 -31.70027 7105 ft 154 kts 99°
2026-05-08 00:55 65.34100 -31.67533 7105 ft 153 kts 99°
2026-05-08 00:55 65.33882 -31.65041 7107 ft 152 kts 99°
2026-05-08 00:55 65.33667 -31.62567 7107 ft 152 kts 99°
2026-05-08 00:56 65.33442 -31.60083 7108 ft 153 kts 100°
2026-05-08 00:56 65.33218 -31.57598 7108 ft 153 kts 99°
2026-05-08 00:56 65.32992 -31.55097 7102 ft 153 kts 100°
2026-05-08 00:56 65.32766 -31.52603 7104 ft 153 kts 100°
2026-05-08 00:57 65.32541 -31.50110 7105 ft 153 kts 99°
2026-05-08 00:57 65.32328 -31.47632 7111 ft 151 kts 99°
2026-05-08 00:57 65.32125 -31.45175 7112 ft 150 kts 100°
2026-05-08 00:57 65.31916 -31.42722 7111 ft 150 kts 100°
2026-05-08 00:58 65.31700 -31.40273 7110 ft 151 kts 101°
2026-05-08 00:58 65.31475 -31.37827 7110 ft 150 kts 101°
2026-05-08 00:58 65.31246 -31.35391 7108 ft 150 kts 101°
2026-05-08 00:58 65.31014 -31.32956 7107 ft 150 kts 102°
2026-05-08 00:59 65.30782 -31.30523 7108 ft 150 kts 102°
2026-05-08 00:59 65.30553 -31.28089 7108 ft 150 kts 101°
2026-05-08 00:59 65.30327 -31.25653 7107 ft 150 kts 101°
2026-05-08 00:59 65.30105 -31.23212 7108 ft 150 kts 101°
2026-05-08 01:00 65.29883 -31.20781 7108 ft 148 kts 101°
2026-05-08 01:00 65.29657 -31.18379 7108 ft 148 kts 100°
2026-05-08 01:00 65.29439 -31.16010 7108 ft 148 kts 100°
2026-05-08 01:00 65.29222 -31.13611 7108 ft 148 kts 100°
2026-05-08 01:01 65.29008 -31.11205 7108 ft 148 kts 99°
2026-05-08 01:01 65.28794 -31.08799 7108 ft 148 kts 99°
2026-05-08 01:01 65.28581 -31.06397 7104 ft 148 kts 99°
2026-05-08 01:01 65.28366 -31.03995 7107 ft 148 kts 100°
2026-05-08 01:02 65.28149 -31.01596 7107 ft 148 kts 100°
2026-05-08 01:02 65.27928 -30.99199 7108 ft 148 kts 100°
2026-05-08 01:02 65.27703 -30.96803 7108 ft 148 kts 100°
2026-05-08 01:02 65.27477 -30.94407 7108 ft 148 kts 101°
2026-05-08 01:03 65.27247 -30.92008 7108 ft 148 kts 101°
2026-05-08 01:03 65.27016 -30.89609 7108 ft 148 kts 101°
2026-05-08 01:03 65.26787 -30.87211 7107 ft 148 kts 101°
2026-05-08 01:03 65.26560 -30.84815 7108 ft 148 kts 101°
2026-05-08 01:04 65.26334 -30.82417 7108 ft 148 kts 100°
2026-05-08 01:04 65.26109 -30.80022 7108 ft 148 kts 100°
2026-05-08 01:04 65.25886 -30.77624 7108 ft 148 kts 100°
2026-05-08 01:04 65.25663 -30.75229 7108 ft 148 kts 100°
2026-05-08 01:05 65.25440 -30.72832 7108 ft 148 kts 100°
2026-05-08 01:05 65.25214 -30.70436 7108 ft 148 kts 100°
2026-05-08 01:05 65.24988 -30.68043 7105 ft 148 kts 101°
2026-05-08 01:05 65.24760 -30.65648 7105 ft 148 kts 101°
2026-05-08 01:06 65.24529 -30.63257 7105 ft 148 kts 101°
2026-05-08 01:06 65.24297 -30.60867 7105 ft 148 kts 101°
2026-05-08 01:06 65.24066 -30.58476 7111 ft 148 kts 101°
2026-05-08 01:06 65.23835 -30.56078 7108 ft 148 kts 101°
2026-05-08 01:07 65.23605 -30.53685 7107 ft 148 kts 101°
2026-05-08 01:07 65.23376 -30.51289 7108 ft 148 kts 101°
2026-05-08 01:07 65.23147 -30.48898 7105 ft 148 kts 101°
2026-05-08 01:07 65.22916 -30.46507 7105 ft 148 kts 101°
2026-05-08 01:08 65.22684 -30.44115 7105 ft 148 kts 101°
2026-05-08 01:08 65.22452 -30.41718 7105 ft 148 kts 101°
2026-05-08 01:08 65.22219 -30.39324 7108 ft 148 kts 101°
2026-05-08 01:08 65.21987 -30.36935 7108 ft 148 kts 101°
2026-05-08 01:09 65.21753 -30.34549 7111 ft 147 kts 101°
2026-05-08 01:09 65.21515 -30.32179 7110 ft 147 kts 101°
2026-05-08 01:09 65.21281 -30.29814 7107 ft 147 kts 101°
2026-05-08 01:09 65.21049 -30.27445 7107 ft 147 kts 101°
2026-05-08 01:10 65.20820 -30.25077 7107 ft 146 kts 101°
2026-05-08 01:10 65.20590 -30.22713 7107 ft 147 kts 101°
2026-05-08 01:10 65.20361 -30.20349 7105 ft 146 kts 101°
2026-05-08 01:10 65.20129 -30.17990 7104 ft 146 kts 101°
2026-05-08 01:11 65.19896 -30.15629 7104 ft 146 kts 101°
2026-05-08 01:11 65.19663 -30.13271 7104 ft 146 kts 101°
2026-05-08 01:11 65.19428 -30.10913 7109 ft 146 kts 101°
2026-05-08 01:11 65.19191 -30.08557 7107 ft 146 kts 101°
2026-05-08 01:12 65.18954 -30.06202 7113 ft 146 kts 101°
2026-05-08 01:12 65.18705 -30.03861 7112 ft 145 kts 101°
2026-05-08 01:12 65.18452 -30.01543 7105 ft 144 kts 100°
2026-05-08 01:12 65.18209 -29.99225 7104 ft 144 kts 99°
2026-05-08 01:13 65.18009 -29.96883 7105 ft 144 kts 95°
2026-05-08 01:13 65.17887 -29.94554 7105 ft 144 kts 91°
2026-05-08 01:13 65.17841 -29.92189 7104 ft 143 kts 86°
2026-05-08 01:13 65.17860 -29.89833 7104 ft 142 kts 83°
2026-05-08 01:14 65.17918 -29.87485 7104 ft 142 kts 82°
2026-05-08 01:14 65.17983 -29.85146 7104 ft 142 kts 82°
2026-05-08 01:14 65.18028 -29.82809 7105 ft 141 kts 84°
2026-05-08 01:14 65.18037 -29.80466 7105 ft 142 kts 86°
2026-05-08 01:15 65.18000 -29.78122 7104 ft 142 kts 89°
2026-05-08 01:15 65.17920 -29.75777 7104 ft 142 kts 91°
2026-05-08 01:15 65.17809 -29.73440 7104 ft 142 kts 93°
2026-05-08 01:15 65.17682 -29.71099 7101 ft 143 kts 93°
2026-05-08 01:16 65.17555 -29.68754 7102 ft 143 kts 93°
2026-05-08 01:16 65.17444 -29.66405 7104 ft 143 kts 92°
2026-05-08 01:16 65.17358 -29.64052 7102 ft 143 kts 90°
2026-05-08 01:16 65.17298 -29.61698 7102 ft 142 kts 89°
2026-05-08 01:17 65.17258 -29.59347 7102 ft 142 kts 88°
2026-05-08 01:17 65.17231 -29.56999 7102 ft 142 kts 87°
2026-05-08 01:17 65.17209 -29.54649 7105 ft 142 kts 87°
2026-05-08 01:17 65.17184 -29.52299 7103 ft 142 kts 88°
2026-05-08 01:18 65.17146 -29.49953 7102 ft 142 kts 89°
2026-05-08 01:18 65.17093 -29.47597 7102 ft 142 kts 89°
2026-05-08 01:18 65.17025 -29.45250 7101 ft 142 kts 90°
2026-05-08 01:18 65.16946 -29.42901 7101 ft 142 kts 91°
2026-05-08 01:19 65.16861 -29.40555 7101 ft 142 kts 91°
2026-05-08 01:19 65.16776 -29.38205 7102 ft 143 kts 91°
2026-05-08 01:19 65.16694 -29.35854 7104 ft 143 kts 90°
2026-05-08 01:19 65.16621 -29.33505 7102 ft 143 kts 90°
2026-05-08 01:20 65.16555 -29.31162 7105 ft 141 kts 90°
2026-05-08 01:20 65.16495 -29.28836 7103 ft 141 kts 89°
2026-05-08 01:20 65.16441 -29.26540 7100 ft 141 kts 89°
2026-05-08 01:20 65.16387 -29.24185 7099 ft 141 kts 89°
2026-05-08 01:21 65.16331 -29.21865 7099 ft 141 kts 89°
2026-05-08 01:21 65.16272 -29.19545 7099 ft 140 kts 89°
2026-05-08 01:21 65.16211 -29.17228 7102 ft 140 kts 90°
2026-05-08 01:21 65.16145 -29.14943 7102 ft 140 kts 90°
2026-05-08 01:22 65.16073 -29.12627 7102 ft 140 kts 90°
2026-05-08 01:22 65.16000 -29.10315 7102 ft 140 kts 90°
2026-05-08 01:22 65.15925 -29.08000 7100 ft 141 kts 90°
2026-05-08 01:22 65.15851 -29.05682 7099 ft 140 kts 90°
2026-05-08 01:23 65.15780 -29.03368 7099 ft 140 kts 90°
2026-05-08 01:23 65.15712 -29.01057 7100 ft 140 kts 90°
2026-05-08 01:23 65.15645 -28.98740 7100 ft 140 kts 90°
2026-05-08 01:23 65.15577 -28.96423 7099 ft 140 kts 90°
2026-05-08 01:24 65.15509 -28.94109 7099 ft 140 kts 90°
2026-05-08 01:24 65.15442 -28.91798 7099 ft 140 kts 90°
2026-05-08 01:24 65.15368 -28.89484 7099 ft 140 kts 90°
2026-05-08 01:24 65.15292 -28.87169 7099 ft 140 kts 90°
2026-05-08 01:25 65.15220 -28.84858 7099 ft 140 kts 90°
2026-05-08 01:25 65.15149 -28.82542 7099 ft 140 kts 90°
2026-05-08 01:25 65.15078 -28.80223 7100 ft 140 kts 90°
2026-05-08 01:25 65.15009 -28.77915 7099 ft 140 kts 90°
2026-05-08 01:26 65.14941 -28.75600 7099 ft 140 kts 90°
2026-05-08 01:26 65.14873 -28.73286 7100 ft 140 kts 90°
2026-05-08 01:26 65.14806 -28.70967 7099 ft 140 kts 90°
2026-05-08 01:26 65.14738 -28.68653 7099 ft 141 kts 90°
2026-05-08 01:27 65.14666 -28.66332 7099 ft 141 kts 90°
2026-05-08 01:27 65.14589 -28.64016 7099 ft 141 kts 90°
2026-05-08 01:27 65.14510 -28.61698 7099 ft 141 kts 91°
2026-05-08 01:27 65.14428 -28.59377 7099 ft 141 kts 91°
2026-05-08 01:28 65.14344 -28.57059 7099 ft 141 kts 91°
2026-05-08 01:28 65.14261 -28.54739 7099 ft 141 kts 91°
2026-05-08 01:28 65.14182 -28.52416 7097 ft 141 kts 90°
2026-05-08 01:28 65.14110 -28.50127 7097 ft 141 kts 90°
2026-05-08 01:29 65.14033 -28.47808 7097 ft 141 kts 91°
2026-05-08 01:29 65.13947 -28.45487 7097 ft 141 kts 91°
2026-05-08 01:29 65.13861 -28.43172 7097 ft 141 kts 91°
2026-05-08 01:29 65.13778 -28.40854 7097 ft 141 kts 91°
2026-05-08 01:30 65.13696 -28.38532 7097 ft 141 kts 92°
2026-05-08 01:30 65.13591 -28.36217 7097 ft 141 kts 94°
2026-05-08 01:30 65.13468 -28.33904 7101 ft 141 kts 94°
2026-05-08 01:30 65.13358 -28.31609 7093 ft 139 kts 92°
2026-05-08 01:31 65.13297 -28.29316 7093 ft 139 kts 87°
2026-05-08 01:31 65.13301 -28.27798 7091 ft 138 kts 85°
2026-05-08 01:31 65.13329 -28.25516 7090 ft 138 kts 84°
2026-05-08 01:31 65.13342 -28.23242 7093 ft 138 kts 86°
2026-05-08 01:32 65.13315 -28.20970 7093 ft 138 kts 89°
2026-05-08 01:32 65.13242 -28.18700 7094 ft 138 kts 91°
2026-05-08 01:32 65.13127 -28.16433 7094 ft 138 kts 94°
2026-05-08 01:32 65.12981 -28.14172 7088 ft 139 kts 95°
2026-05-08 01:33 65.12824 -28.11906 7088 ft 139 kts 95°
2026-05-08 01:33 65.12673 -28.09635 7089 ft 139 kts 94°
2026-05-08 01:33 65.12543 -28.07363 7089 ft 139 kts 92°
2026-05-08 01:33 65.12441 -28.05085 7091 ft 139 kts 91°
2026-05-08 01:34 65.12368 -28.02804 7091 ft 138 kts 89°
2026-05-08 01:34 65.12315 -28.00526 7091 ft 138 kts 89°
2026-05-08 01:34 65.12272 -27.98245 7091 ft 138 kts 88°
2026-05-08 01:34 65.12230 -27.95968 7088 ft 138 kts 88°
2026-05-08 01:35 65.12180 -27.93693 7089 ft 138 kts 89°
2026-05-08 01:35 65.12115 -27.91418 7089 ft 138 kts 90°
2026-05-08 01:35 65.12035 -27.89146 7088 ft 138 kts 91°
2026-05-08 01:35 65.11941 -27.86874 7090 ft 139 kts 92°
2026-05-08 01:36 65.11837 -27.84596 7089 ft 139 kts 92°
2026-05-08 01:36 65.11727 -27.82319 7089 ft 139 kts 92°
2026-05-08 01:36 65.11618 -27.80039 7089 ft 139 kts 92°
2026-05-08 01:36 65.11515 -27.77759 7091 ft 139 kts 92°
2026-05-08 01:37 65.11419 -27.75481 7091 ft 139 kts 91°
2026-05-08 01:37 65.11331 -27.73197 7089 ft 139 kts 91°
2026-05-08 01:37 65.11251 -27.70917 7081 ft 139 kts 90°
2026-05-08 01:37 65.11174 -27.68633 7081 ft 139 kts 90°
2026-05-08 01:38 65.11100 -27.66347 7081 ft 139 kts 90°
2026-05-08 01:38 65.11025 -27.64062 7081 ft 139 kts 90°
2026-05-08 01:38 65.10945 -27.61778 7081 ft 139 kts 91°
2026-05-08 01:38 65.10858 -27.59501 7083 ft 139 kts 91°
2026-05-08 01:39 65.10767 -27.57251 7083 ft 139 kts 91°
2026-05-08 01:39 65.10671 -27.54970 7083 ft 139 kts 91°
2026-05-08 01:39 65.10572 -27.52690 7083 ft 139 kts 91°
2026-05-08 01:39 65.10473 -27.50411 7080 ft 139 kts 91°
2026-05-08 01:40 65.10375 -27.48127 7081 ft 139 kts 91°
2026-05-08 01:40 65.10280 -27.45845 7081 ft 139 kts 91°
2026-05-08 01:40 65.10187 -27.43563 7081 ft 139 kts 91°
2026-05-08 01:40 65.10096 -27.41282 7081 ft 139 kts 91°
2026-05-08 01:41 65.10009 -27.39001 7081 ft 139 kts 91°
2026-05-08 01:41 65.09920 -27.36719 7080 ft 139 kts 91°
2026-05-08 01:41 65.09829 -27.34451 7084 ft 137 kts 91°
2026-05-08 01:41 65.09734 -27.32200 7081 ft 137 kts 91°
2026-05-08 01:42 65.09640 -27.29955 7081 ft 137 kts 91°
2026-05-08 01:42 65.09546 -27.27714 7081 ft 136 kts 91°
2026-05-08 01:42 65.09452 -27.25480 7084 ft 136 kts 91°
2026-05-08 01:42 65.09360 -27.23238 7085 ft 138 kts 91°
2026-05-08 01:43 65.09268 -27.20956 7061 ft 141 kts 91°
2026-05-08 01:43 65.09179 -27.18652 7066 ft 139 kts 91°
2026-05-08 01:43 65.09087 -27.16365 7072 ft 139 kts 91°
2026-05-08 01:43 65.08992 -27.14083 7077 ft 139 kts 91°
2026-05-08 01:44 65.08892 -27.11810 7076 ft 138 kts 91°
2026-05-08 01:44 65.08788 -27.09563 7071 ft 136 kts 91°
2026-05-08 01:44 65.08680 -27.07319 7071 ft 137 kts 91°
2026-05-08 01:44 65.08575 -27.05069 7070 ft 137 kts 91°
2026-05-08 01:45 65.08472 -27.02830 7070 ft 137 kts 90°
2026-05-08 01:45 65.08373 -27.00598 7069 ft 135 kts 90°
2026-05-08 01:45 65.08278 -26.98375 7069 ft 136 kts 90°
2026-05-08 01:45 65.08187 -26.96140 7070 ft 136 kts 89°
2026-05-08 01:46 65.08100 -26.93929 7070 ft 137 kts 89°
2026-05-08 01:46 65.08013 -26.91679 7070 ft 137 kts 89°
2026-05-08 01:46 65.07924 -26.89436 7069 ft 137 kts 90°
2026-05-08 01:46 65.07830 -26.87198 7071 ft 136 kts 90°
2026-05-08 01:47 65.07729 -26.84978 7072 ft 136 kts 90°
2026-05-08 01:47 65.07632 -26.82786 6966 ft 133 kts 89°
2026-05-08 01:47 65.07546 -26.80536 6706 ft 140 kts 89°
2026-05-08 01:48 65.07355 -26.76101 6369 ft 135 kts 91°
2026-05-08 01:48 65.07244 -26.73895 6171 ft 133 kts 91°
2026-05-08 01:48 65.07132 -26.71740 6012 ft 131 kts 91°
2026-05-08 01:48 65.07028 -26.69576 5797 ft 132 kts 91°
2026-05-08 01:49 65.06912 -26.67418 5625 ft 131 kts 91°
2026-05-08 01:49 65.06811 -26.65261 5445 ft 133 kts 91°
2026-05-08 01:49 65.06714 -26.63083 5228 ft 137 kts 91°
2026-05-08 01:49 65.06630 -26.60789 4999 ft 138 kts 90°
2026-05-08 01:50 65.06534 -26.58598 4923 ft 133 kts 90°
2026-05-08 01:50 65.06436 -26.56371 4690 ft 138 kts 91°
2026-05-08 01:50 65.06335 -26.54120 4558 ft 136 kts 91°
2026-05-08 01:50 65.06226 -26.51931 4343 ft 133 kts 91°
2026-05-08 01:51 65.06121 -26.49702 3934 ft 139 kts 90°
2026-05-08 01:51 65.06011 -26.47452 3653 ft 135 kts 91°
2026-05-08 01:51 65.05892 -26.45230 3278 ft 137 kts 90°
2026-05-08 01:51 65.05781 -26.43000 3025 ft 131 kts 90°
2026-05-08 01:52 65.05670 -26.41041 3062 ft 108 kts 91°
2026-05-08 01:52 65.05569 -26.39282 2949 ft 106 kts 90°
2026-05-08 01:52 65.05469 -26.37658 2963 ft 91 kts 90°
2026-05-08 01:52 65.05381 -26.36061 2910 ft 105 kts 88°
2026-05-08 01:53 65.05305 -26.34221 2896 ft 113 kts 88°
2026-05-08 01:53 65.05235 -26.32406 3061 ft 108 kts 87°
2026-05-08 01:53 65.05186 -26.30558 3046 ft 117 kts 86°
2026-05-08 01:53 65.05134 -26.28588 3058 ft 122 kts 87°
2026-05-08 01:54 65.05073 -26.26556 3068 ft 125 kts 89°
2026-05-08 01:54 65.04986 -26.24507 3077 ft 126 kts 90°
2026-05-08 01:54 65.04886 -26.22420 3070 ft 128 kts 90°
2026-05-08 01:54 65.04773 -26.20328 3064 ft 129 kts 91°
2026-05-08 01:55 65.04647 -26.18205 3045 ft 132 kts 91°
2026-05-08 01:55 65.04513 -26.16062 3032 ft 132 kts 92°
2026-05-08 01:55 65.04388 -26.13877 2993 ft 132 kts 91°
2026-05-08 01:55 65.04264 -26.11735 2996 ft 130 kts 91°
2026-05-08 01:56 65.04138 -26.09637 2997 ft 130 kts 91°
2026-05-08 01:56 65.04021 -26.07491 3001 ft 130 kts 90°
2026-05-08 01:56 65.03920 -26.05425 2997 ft 128 kts 89°
2026-05-08 01:56 65.03834 -26.03347 2999 ft 126 kts 90°
2026-05-08 01:57 65.03746 -26.01272 3000 ft 127 kts 89°
2026-05-08 01:57 65.03672 -25.99205 3001 ft 125 kts 89°
2026-05-08 01:57 65.03589 -25.97159 3004 ft 126 kts 90°
2026-05-08 01:57 65.03496 -25.95111 3002 ft 125 kts 90°
2026-05-08 01:58 65.03390 -25.93061 2994 ft 125 kts 91°
2026-05-08 01:58 65.03276 -25.91004 2995 ft 126 kts 91°
2026-05-08 01:58 65.03153 -25.88947 2997 ft 127 kts 91°
2026-05-08 01:58 65.03038 -25.86869 2999 ft 128 kts 91°
2026-05-08 01:59 65.02916 -25.84800 2995 ft 127 kts 91°
2026-05-08 01:59 65.02791 -25.82727 2999 ft 127 kts 91°
2026-05-08 01:59 65.02664 -25.80675 3002 ft 125 kts 90°
2026-05-08 01:59 65.02565 -25.78617 3000 ft 126 kts 89°
2026-05-08 02:00 65.02472 -25.76557 2999 ft 126 kts 89°
2026-05-08 02:00 65.02395 -25.74481 2999 ft 127 kts 89°
2026-05-08 02:00 65.02318 -25.72424 2996 ft 127 kts 89°
2026-05-08 02:00 65.02228 -25.70347 2999 ft 127 kts 90°
2026-05-08 02:01 65.02121 -25.68279 2999 ft 126 kts 91°
2026-05-08 02:01 65.01995 -25.66225 2997 ft 127 kts 91°
2026-05-08 02:01 65.01868 -25.64172 3013 ft 125 kts 91°
2026-05-08 02:01 65.01732 -25.62131 3001 ft 126 kts 91°
2026-05-08 02:02 65.01608 -25.60081 2999 ft 125 kts 90°
2026-05-08 02:02 65.01493 -25.58045 2999 ft 125 kts 89°
2026-05-08 02:02 65.01392 -25.56013 2998 ft 124 kts 89°
2026-05-08 02:02 65.01286 -25.53989 2998 ft 124 kts 89°
2026-05-08 02:03 65.01193 -25.51956 2998 ft 124 kts 88°
2026-05-08 02:03 65.01093 -25.49937 2998 ft 123 kts 89°
2026-05-08 02:03 65.01003 -25.47916 2998 ft 124 kts 89°
2026-05-08 02:03 65.00910 -25.45902 2999 ft 122 kts 89°
2026-05-08 02:04 65.00807 -25.43894 3004 ft 123 kts 89°
2026-05-08 02:04 65.00693 -25.41895 3000 ft 123 kts 90°
2026-05-08 02:04 65.00572 -25.39875 2996 ft 126 kts 90°
2026-05-08 02:04 65.00449 -25.37828 2994 ft 125 kts 89°
2026-05-08 02:05 65.00340 -25.35772 2993 ft 126 kts 90°
2026-05-08 02:05 65.00225 -25.33718 2982 ft 126 kts 90°
2026-05-08 02:05 65.00105 -25.31680 2980 ft 125 kts 90°
2026-05-08 02:05 64.99998 -25.29647 2982 ft 124 kts 91°
2026-05-08 02:06 64.99868 -25.27634 2982 ft 124 kts 90°
2026-05-08 02:06 64.99758 -25.25592 2983 ft 125 kts 89°
2026-05-08 02:06 64.99655 -25.23553 2985 ft 125 kts 89°
2026-05-08 02:06 64.99561 -25.21494 2983 ft 126 kts 89°
2026-05-08 02:07 64.99454 -25.19446 2983 ft 125 kts 89°
2026-05-08 02:07 64.99350 -25.17407 2982 ft 124 kts 89°
2026-05-08 02:07 64.99230 -25.15391 2979 ft 123 kts 90°
2026-05-08 02:07 64.99105 -25.13422 2978 ft 120 kts 90°
2026-05-08 02:08 64.98983 -25.11513 2989 ft 116 kts 90°
2026-05-08 02:08 64.98865 -25.09629 2984 ft 116 kts 90°
2026-05-08 02:08 64.98759 -25.07772 2981 ft 115 kts 90°
2026-05-08 02:08 64.98644 -25.05918 2981 ft 114 kts 89°
2026-05-08 02:09 64.98536 -25.04077 2981 ft 112 kts 89°
2026-05-08 02:09 64.98427 -25.02261 2982 ft 112 kts 88°
2026-05-08 02:09 64.98337 -25.00428 2985 ft 113 kts 88°
2026-05-08 02:09 64.98254 -24.98593 2983 ft 113 kts 87°
2026-05-08 02:10 64.98176 -24.96752 2983 ft 112 kts 88°
2026-05-08 02:10 64.98080 -24.94923 2982 ft 112 kts 89°
2026-05-08 02:10 64.97963 -24.93098 2979 ft 113 kts 90°
2026-05-08 02:10 64.97845 -24.91278 2981 ft 112 kts 90°
2026-05-08 02:11 64.97720 -24.89476 2982 ft 111 kts 89°
2026-05-08 02:11 64.97613 -24.87649 2982 ft 113 kts 90°
2026-05-08 02:11 64.97508 -24.85819 2984 ft 113 kts 89°
2026-05-08 02:11 64.97415 -24.83970 2982 ft 113 kts 89°
2026-05-08 02:12 64.97314 -24.82132 2982 ft 112 kts 89°
2026-05-08 02:12 64.97208 -24.80304 2982 ft 112 kts 90°
2026-05-08 02:12 64.97095 -24.78491 2982 ft 112 kts 89°
2026-05-08 02:12 64.96986 -24.76684 2982 ft 111 kts 89°
2026-05-08 02:13 64.96886 -24.74886 2977 ft 112 kts 89°
2026-05-08 02:13 64.96779 -24.73065 2977 ft 112 kts 89°
2026-05-08 02:13 64.96676 -24.71229 2977 ft 113 kts 89°
2026-05-08 02:13 64.96565 -24.69401 2977 ft 112 kts 89°
2026-05-08 02:14 64.96460 -24.67572 2977 ft 112 kts 89°
2026-05-08 02:14 64.96342 -24.65770 2977 ft 111 kts 89°
2026-05-08 02:14 64.96225 -24.63968 2977 ft 112 kts 89°
2026-05-08 02:14 64.96121 -24.62150 2972 ft 111 kts 89°
2026-05-08 02:15 64.96024 -24.60326 2972 ft 113 kts 89°
2026-05-08 02:15 64.95923 -24.58491 2972 ft 113 kts 89°
2026-05-08 02:15 64.95809 -24.56670 2971 ft 112 kts 90°
2026-05-08 02:15 64.95686 -24.54863 2971 ft 111 kts 90°
2026-05-08 02:16 64.95558 -24.53075 2971 ft 110 kts 89°
2026-05-08 02:16 64.95449 -24.51285 2971 ft 111 kts 88°
2026-05-08 02:16 64.95354 -24.49484 2973 ft 110 kts 88°
2026-05-08 02:16 64.95266 -24.47681 2974 ft 111 kts 88°
2026-05-08 02:17 64.95175 -24.45858 2974 ft 112 kts 89°
2026-05-08 02:17 64.95061 -24.44038 2974 ft 113 kts 90°
2026-05-08 02:17 64.94948 -24.42221 2978 ft 111 kts 90°
2026-05-08 02:17 64.94839 -24.40410 2973 ft 112 kts 91°
2026-05-08 02:18 64.94718 -24.38599 2971 ft 112 kts 91°
2026-05-08 02:18 64.94593 -24.36800 2971 ft 111 kts 91°
2026-05-08 02:18 64.94472 -24.35011 2968 ft 111 kts 91°
2026-05-08 02:18 64.94361 -24.33214 2971 ft 110 kts 90°
2026-05-08 02:19 64.94248 -24.31435 2972 ft 111 kts 90°
2026-05-08 02:19 64.94159 -24.29610 2953 ft 113 kts 86°
2026-05-08 02:19 64.94126 -24.27741 2937 ft 115 kts 84°
2026-05-08 02:19 64.94041 -24.25803 2840 ft 123 kts 94°
2026-05-08 02:20 64.93751 -24.23963 2792 ft 121 kts 111°
2026-05-08 02:20 64.93320 -24.22260 2703 ft 122 kts 116°
2026-05-08 02:20 64.92804 -24.20620 2605 ft 125 kts 119°
2026-05-08 02:20 64.92231 -24.19096 2420 ft 126 kts 121°
2026-05-08 02:21 64.91706 -24.17577 2397 ft 113 kts 115°
2026-05-08 02:21 64.91262 -24.16087 2322 ft 108 kts 111°
2026-05-08 02:21 64.90853 -24.14647 2227 ft 106 kts 110°
2026-05-08 02:21 64.90496 -24.13141 2150 ft 102 kts 103°
2026-05-08 02:22 64.90204 -24.11675 2088 ft 98 kts 102°
2026-05-08 02:22 64.89947 -24.10183 1999 ft 98 kts 95°
2026-05-08 02:22 64.89789 -24.09182 1942 ft 96 kts 101°
2026-05-08 02:22 64.89539 -24.07725 1851 ft 98 kts 98°
2026-05-08 02:23 64.89225 -24.06276 1720 ft 101 kts 111°
2026-05-08 02:23 64.88885 -24.04840 1682 ft 97 kts 103°
2026-05-08 02:23 64.88540 -24.03444 1642 ft 100 kts 109°
2026-05-08 02:23 64.88253 -24.01985 1675 ft 96 kts 90°
2026-05-08 02:24 64.88139 -24.00525 1689 ft 89 kts 83°
2026-05-08 02:24 64.88073 -23.99064 1673 ft 90 kts 85°
2026-05-08 02:24 64.88055 -23.97609 1645 ft 92 kts 79°
2026-05-08 02:24 64.88040 -23.96067 1591 ft 94 kts 79°
2026-05-08 02:25 64.88010 -23.94548 1487 ft 94 kts 77°
2026-05-08 02:25 64.88090 -23.93111 1369 ft 83 kts 68°
2026-05-08 02:25 64.88227 -23.91866 1209 ft 77 kts 66°
2026-05-08 02:25 64.88380 -23.90719 1068 ft 72 kts 60°
2026-05-08 02:26 64.88459 -23.89558 930 ft 74 kts 77°
2026-05-08 02:26 64.88490 -23.88356 841 ft 74 kts 66°
2026-05-08 02:26 64.88680 -23.87269 732 ft 70 kts 53°
2026-05-08 02:26 64.88918 -23.86285 600 ft 70 kts 53°
2026-05-08 02:27 64.89217 -23.85400 481 ft 67 kts 30°
2026-05-08 02:27 64.89592 -23.84753 363 ft 64 kts 43°
2026-05-08 02:27 64.89912 -23.84087 251 ft 56 kts 32°
2026-05-08 02:27 64.90218 -23.83532 200 ft 59 kts 39°
2026-05-08 02:28 64.90546 -23.82927 110 ft 56 kts 41°
2026-05-08 02:28 64.90824 -23.82417 41 ft 56 kts 40°
2026-05-08 02:28 64.91088 -23.81893 19 ft 38 kts 39°
2026-05-08 02:28 64.91224 -23.81636 18 ft 14 kts 38°
2026-05-08 02:29 64.91287 -23.81515 18 ft 17 kts 38°
2026-05-08 02:29 64.91352 -23.81391 13 ft 8 kts 44°
2026-05-08 02:29 64.91376 -23.81326 12 ft 7 kts 38°
2026-05-08 02:29 64.91367 -23.81363 12 ft 15 kts 212°
2026-05-08 02:30 64.91225 -23.81655 18 ft 25 kts 221°
2026-05-08 02:30 64.91207 -23.81810 17 ft 9 kts 314°
2026-05-08 02:30 64.91239 -23.81905 14 ft 5 kts 298°
2026-05-08 02:30 64.91248 -23.81947 14 ft 2 kts 301°
2026-05-08 02:31 64.91252 -23.81960 14 ft 2 kts 302°
2026-05-08 02:35 64.91252 -23.81959 14 ft 0 kts 303°
2026-05-08 02:40 64.91251 -23.81955 13 ft 0 kts 300°
2026-05-08 02:40 64.91252 -23.81958 14 ft 0 kts 300°
2026-05-08 02:41 64.91244 -23.81973 14 ft 8 kts 136°
2026-05-08 02:41 64.91212 -23.81827 17 ft 3 kts 134°
2026-05-08 02:41 64.91211 -23.81824 17 ft 0 kts 137°